createdAt,value
2018-04-18T00:01:01.423Z,31.40
2018-04-18T00:03:35.369Z,30.13
2018-04-18T00:06:07.682Z,32.63
2018-04-18T00:08:39.857Z,31.57
2018-04-18T00:11:12.237Z,28.93
2018-04-18T00:13:44.402Z,33.80
2018-04-18T00:16:16.692Z,30.93
2018-04-18T00:18:49.605Z,35.37
2018-04-18T00:21:21.655Z,32.37
2018-04-18T00:23:53.684Z,33.50
2018-04-18T00:26:25.811Z,33.90
2018-04-18T00:28:57.954Z,33.43
2018-04-18T00:31:30.115Z,30.23
2018-04-18T00:34:03.026Z,32.37
2018-04-18T00:36:35.963Z,32.87
2018-04-18T00:39:08.797Z,31.23
2018-04-18T00:41:41.134Z,32.73
2018-04-18T00:44:14.168Z,36.93
2018-04-18T00:46:46.477Z,34.90
2018-04-18T00:49:18.755Z,36.60
2018-04-18T00:51:51.676Z,35.00
2018-04-18T00:54:24.490Z,38.07
2018-04-18T00:56:56.639Z,33.33
2018-04-18T00:59:28.756Z,38.47
2018-04-18T01:02:01.032Z,40.43
2018-04-18T01:04:33.992Z,34.53
2018-04-18T01:07:06.247Z,31.47
2018-04-18T01:09:38.561Z,34.80
2018-04-18T01:12:11.496Z,33.47
2018-04-18T01:14:43.646Z,34.87
2018-04-18T01:17:16.671Z,34.43
2018-04-18T01:19:48.961Z,34.13
2018-04-18T01:22:22.909Z,33.20
2018-04-18T01:24:55.082Z,41.73
2018-04-18T01:27:27.261Z,37.37
2018-04-18T01:29:59.436Z,37.00
2018-04-18T01:32:31.624Z,36.67
2018-04-18T01:35:03.891Z,36.80
2018-04-18T01:37:35.996Z,38.07
2018-04-18T01:40:09.053Z,38.37
2018-04-18T01:42:41.540Z,37.37
2018-04-18T01:45:14.679Z,34.07
2018-04-18T01:47:47.013Z,38.67
2018-04-18T01:50:19.954Z,38.20
2018-04-18T01:52:54.560Z,33.20
2018-04-18T01:55:31.984Z,34.43
2018-04-18T01:58:07.753Z,40.80
2018-04-18T02:00:39.981Z,36.50
2018-04-18T02:03:12.072Z,39.67
2018-04-18T02:05:44.618Z,42.77
2018-04-18T02:08:17.335Z,41.07
2018-04-18T02:10:49.696Z,34.13
2018-04-18T02:13:22.010Z,39.67
2018-04-18T02:15:54.379Z,40.93
2018-04-18T02:18:28.378Z,41.90
2018-04-18T02:21:01.559Z,41.60
2018-04-18T02:23:33.694Z,38.80
2018-04-18T02:26:05.846Z,40.53
2018-04-18T02:28:38.213Z,39.70
2018-04-18T02:31:10.317Z,45.37
2018-04-18T02:33:42.413Z,39.33
2018-04-18T02:36:15.275Z,41.87
2018-04-18T02:38:47.344Z,39.43
2018-04-18T02:41:25.099Z,39.47
2018-04-18T02:44:02.257Z,39.40
2018-04-18T02:46:40.419Z,42.47
2018-04-18T02:49:17.899Z,40.53
2018-04-18T02:51:50.097Z,40.63
2018-04-18T02:54:22.183Z,38.40
2018-04-18T02:56:55.092Z,43.83
2018-04-18T02:59:27.197Z,41.47
2018-04-18T03:01:59.335Z,42.60
2018-04-18T03:04:31.500Z,47.97
2018-04-18T03:07:03.780Z,47.17
2018-04-18T03:09:35.988Z,51.43
2018-04-18T03:12:08.360Z,45.67
2018-04-18T03:14:40.381Z,47.47
2018-04-18T03:17:12.669Z,47.53
2018-04-18T03:19:44.768Z,45.63
2018-04-18T03:22:16.847Z,44.60
2018-04-18T03:24:49.679Z,39.17
2018-04-18T03:27:21.813Z,45.13
2018-04-18T03:29:54.738Z,49.80
2018-04-18T03:32:27.015Z,42.47
2018-04-18T03:34:59.071Z,42.57
2018-04-18T03:37:32.212Z,47.20
2018-04-18T03:40:05.081Z,48.10
2018-04-18T03:42:38.124Z,38.87
2018-04-18T03:45:10.554Z,44.13
2018-04-18T03:47:43.671Z,46.67
2018-04-18T03:50:15.877Z,46.83
2018-04-18T03:52:48.222Z,45.57
2018-04-18T03:55:20.356Z,46.57
2018-04-18T03:57:53.387Z,46.97
2018-04-18T04:00:25.581Z,45.70
2018-04-18T04:02:57.756Z,51.00
2018-04-18T04:05:29.896Z,48.77
2018-04-18T04:08:02.390Z,47.67
2018-04-18T04:10:34.749Z,49.57
2018-04-18T04:13:06.987Z,50.47
2018-04-18T04:15:39.332Z,55.03
2018-04-18T04:18:24.862Z,50.43
2018-04-18T04:21:09.652Z,49.97
2018-04-18T04:23:54.460Z,48.97
2018-04-18T04:26:26.704Z,57.57
2018-04-18T04:28:59.593Z,52.50
2018-04-18T04:31:32.618Z,50.03
2018-04-18T04:34:05.483Z,51.10
2018-04-18T04:36:37.868Z,56.60
2018-04-18T04:39:10.275Z,55.53
2018-04-18T04:41:42.678Z,57.40
2018-04-18T04:44:15.047Z,53.67
2018-04-18T04:46:47.533Z,50.53
2018-04-18T04:49:20.582Z,56.73
2018-04-18T04:51:53.467Z,55.90
2018-04-18T04:54:25.754Z,50.77
2018-04-18T04:56:58.061Z,55.87
2018-04-18T04:59:30.953Z,55.40
2018-04-18T05:02:03.318Z,57.97
2018-04-18T05:04:35.777Z,58.57
2018-04-18T05:07:09.101Z,49.53
2018-04-18T05:09:41.416Z,55.60
2018-04-18T05:12:13.569Z,61.67
2018-04-18T05:14:45.795Z,55.43
2018-04-18T05:17:18.637Z,57.57
2018-04-18T05:19:50.717Z,56.73
2018-04-18T05:22:23.724Z,51.17
2018-04-18T05:24:57.321Z,56.50
2018-04-18T05:27:44.768Z,56.07
2018-04-18T05:30:17.061Z,55.53
2018-04-18T05:32:49.173Z,59.17
2018-04-18T05:35:21.229Z,51.23
2018-04-18T05:37:53.491Z,52.60
2018-04-18T05:40:25.534Z,59.10
2018-04-18T05:42:57.789Z,53.87
2018-04-18T05:45:30.060Z,59.30
2018-04-18T05:48:02.702Z,49.97
2018-04-18T05:50:35.585Z,54.80
2018-04-18T05:53:08.420Z,46.83
2018-04-18T05:55:40.585Z,49.37
2018-04-18T05:58:12.746Z,50.13
2018-04-18T06:00:44.834Z,49.17
2018-04-18T06:03:16.964Z,48.03
2018-04-18T06:05:49.037Z,51.43
2018-04-18T06:08:21.245Z,51.73
2018-04-18T06:10:54.012Z,49.87
2018-04-18T06:13:26.109Z,47.73
2018-04-18T06:15:58.401Z,46.47
2018-04-18T06:18:31.328Z,43.97
2018-04-18T06:21:03.563Z,50.17
2018-04-18T06:23:35.768Z,44.10
2018-04-18T06:26:07.942Z,45.73
2018-04-18T06:28:40.087Z,42.20
2018-04-18T06:31:13.258Z,47.50
2018-04-18T06:33:45.365Z,45.40
2018-04-18T06:36:17.444Z,48.50
2018-04-18T06:38:49.493Z,40.67
2018-04-18T06:41:21.645Z,41.53
2018-04-18T06:43:53.944Z,41.77
2018-04-18T06:46:26.019Z,39.13
2018-04-18T06:48:58.036Z,38.73
2018-04-18T06:51:30.332Z,37.50
2018-04-18T06:54:03.074Z,38.93
2018-04-18T06:56:36.075Z,39.70
2018-04-18T06:59:08.918Z,36.57
2018-04-18T07:01:41.058Z,37.73
2018-04-18T07:04:13.361Z,38.67
2018-04-18T07:06:45.456Z,35.90
2018-04-18T07:09:17.643Z,36.93
2018-04-18T07:11:50.038Z,36.40
2018-04-18T07:14:22.206Z,36.73
2018-04-18T07:16:54.400Z,35.50
2018-04-18T07:19:26.671Z,34.47
2018-04-18T07:21:58.981Z,34.90
2018-04-18T07:24:31.249Z,37.13
2018-04-18T07:27:03.425Z,34.63
2018-04-18T07:29:35.603Z,34.73
2018-04-18T07:32:07.794Z,32.10
2018-04-18T07:34:39.911Z,31.20
2018-04-18T07:37:12.113Z,31.07
2018-04-18T07:39:44.201Z,28.77
2018-04-18T07:42:16.524Z,28.37
2018-04-18T07:44:48.877Z,27.03
2018-04-18T07:47:21.625Z,23.30
2018-04-18T07:49:54.782Z,28.53
2018-04-18T07:52:26.901Z,27.13
2018-04-18T07:54:59.079Z,28.23
2018-04-18T07:57:31.124Z,25.53
2018-04-18T08:00:03.216Z,28.87
2018-04-18T08:02:36.271Z,30.50
2018-04-18T08:05:08.317Z,27.33
2018-04-18T08:07:40.414Z,23.53
2018-04-18T08:10:12.437Z,22.77
2018-04-18T08:12:44.579Z,23.73
2018-04-18T08:15:16.777Z,22.63
2018-04-18T08:17:48.969Z,27.37
2018-04-18T08:20:21.111Z,23.97
2018-04-18T08:22:53.212Z,19.33
2018-04-18T08:25:25.539Z,21.00
2018-04-18T08:28:01.735Z,21.73
2018-04-18T08:30:33.794Z,21.47
2018-04-18T08:33:06.039Z,22.67
2018-04-18T08:35:39.106Z,22.33
2018-04-18T08:38:11.372Z,20.20
2018-04-18T08:40:43.480Z,20.40
2018-04-18T08:43:16.494Z,19.73
2018-04-18T08:45:49.593Z,20.90
2018-04-18T08:48:22.485Z,19.70
2018-04-18T08:50:55.307Z,20.83
2018-04-18T08:53:27.491Z,22.37
2018-04-18T08:55:59.549Z,20.63
2018-04-18T08:58:32.451Z,22.73
2018-04-18T09:01:04.640Z,21.40
2018-04-18T09:03:36.774Z,22.13
2018-04-18T09:06:08.928Z,20.87
2018-04-18T09:08:41.029Z,20.73
2018-04-18T09:11:13.103Z,21.77
2018-04-18T09:13:46.005Z,21.83
2018-04-18T09:16:18.917Z,25.33
2018-04-18T09:18:51.156Z,22.30
2018-04-18T09:21:24.192Z,26.57
2018-04-18T09:23:56.281Z,20.87
2018-04-18T09:26:29.353Z,20.73
2018-04-18T09:29:01.511Z,23.97
2018-04-18T09:31:33.785Z,22.10
2018-04-18T09:34:05.851Z,23.20
2018-04-18T09:36:38.015Z,21.17
2018-04-18T09:39:10.401Z,20.60
2018-04-18T09:41:42.671Z,22.03
2018-04-18T09:44:14.891Z,18.67
2018-04-18T09:46:46.997Z,18.03
2018-04-18T09:49:19.116Z,17.23
2018-04-18T09:51:52.025Z,17.50
2018-04-18T09:54:24.216Z,26.07
2018-04-18T09:56:56.434Z,17.83
2018-04-18T09:59:28.644Z,15.40
2018-04-18T10:02:01.312Z,18.87
2018-04-18T10:04:33.469Z,17.37
2018-04-18T10:07:05.577Z,25.00
2018-04-18T10:09:37.730Z,13.87
2018-04-18T10:12:09.832Z,13.27
2018-04-18T10:14:41.952Z,15.80
2018-04-18T10:17:14.024Z,13.03
2018-04-18T10:19:46.098Z,16.93
2018-04-18T10:22:18.173Z,18.73
2018-04-18T10:24:50.317Z,10.80
2018-04-18T10:27:22.423Z,14.97
2018-04-18T10:29:54.896Z,15.20
2018-04-18T10:32:34.090Z,15.20
2018-04-18T10:35:06.326Z,16.17
2018-04-18T10:37:39.333Z,16.00
2018-04-18T10:40:12.381Z,15.03
2018-04-18T10:42:44.425Z,14.43
2018-04-18T10:45:16.512Z,12.27
2018-04-18T10:47:48.656Z,11.93
2018-04-18T10:50:20.725Z,13.23
2018-04-18T10:52:53.190Z,11.83
2018-04-18T10:55:25.278Z,13.90
2018-04-18T10:57:57.621Z,11.80
2018-04-18T11:00:30.765Z,11.63
2018-04-18T11:03:03.717Z,14.30
2018-04-18T11:05:35.860Z,12.57
2018-04-18T11:08:08.052Z,15.93
2018-04-18T11:10:40.135Z,15.67
2018-04-18T11:13:12.226Z,13.07
2018-04-18T11:15:46.164Z,14.40
2018-04-18T11:18:18.341Z,14.10
2018-04-18T11:20:50.477Z,13.20
2018-04-18T11:23:23.347Z,10.63
2018-04-18T11:25:56.247Z,12.67
2018-04-18T11:28:28.314Z,15.47
2018-04-18T11:31:00.569Z,13.90
2018-04-18T11:33:32.785Z,13.97
2018-04-18T11:36:04.851Z,17.30
2018-04-18T11:38:36.974Z,12.93
2018-04-18T11:41:10.747Z,13.90
2018-04-18T11:43:43.048Z,13.70
2018-04-18T11:46:15.874Z,10.90
2018-04-18T11:48:48.150Z,12.60
2018-04-18T11:51:20.416Z,15.67
2018-04-18T11:53:52.820Z,14.33
2018-04-18T11:56:25.242Z,13.27
2018-04-18T11:58:57.377Z,12.33
2018-04-18T12:01:30.576Z,12.83
2018-04-18T12:04:02.903Z,13.53
2018-04-18T12:06:35.238Z,13.97
2018-04-18T12:09:07.907Z,13.33
2018-04-18T12:11:40.013Z,14.57
2018-04-18T12:14:12.192Z,10.13
2018-04-18T12:16:44.382Z,11.50
2018-04-18T12:19:17.336Z,14.87
2018-04-18T12:21:49.751Z,13.27
2018-04-18T12:24:22.023Z,12.77
2018-04-18T12:26:54.986Z,14.37
2018-04-18T12:29:27.285Z,11.67
2018-04-18T12:32:00.347Z,13.23
2018-04-18T12:34:32.909Z,11.03
2018-04-18T12:37:04.989Z,13.23
2018-04-18T12:39:37.181Z,12.37
2018-04-18T12:42:09.354Z,15.87
2018-04-18T12:44:43.008Z,14.13
2018-04-18T12:47:15.214Z,11.17
2018-04-18T12:49:48.345Z,14.67
2018-04-18T12:52:20.414Z,12.50
2018-04-18T12:54:52.496Z,12.37
2018-04-18T12:57:24.661Z,13.57
2018-04-18T12:59:57.182Z,11.53
2018-04-18T13:02:30.297Z,11.37
2018-04-18T13:05:02.537Z,11.37
2018-04-18T13:07:34.881Z,14.10
2018-04-18T13:10:07.073Z,16.20
2018-04-18T13:12:39.401Z,14.50
2018-04-18T13:15:12.514Z,14.87
2018-04-18T13:17:44.663Z,14.87
2018-04-18T13:20:16.704Z,17.83
2018-04-18T13:22:50.481Z,16.23
2018-04-18T13:25:22.759Z,13.50
2018-04-18T13:27:55.713Z,12.10
2018-04-18T13:30:27.807Z,15.03
2018-04-18T13:33:00.713Z,12.33
2018-04-18T13:35:33.662Z,13.53
2018-04-18T13:38:06.023Z,14.57
2018-04-18T13:40:38.081Z,17.23
2018-04-18T13:43:10.430Z,15.03
2018-04-18T13:45:42.641Z,13.83
2018-04-18T13:48:15.018Z,13.93
2018-04-18T13:50:47.141Z,14.10
2018-04-18T13:53:19.199Z,14.73
2018-04-18T13:55:51.410Z,13.50
2018-04-18T13:58:23.777Z,14.40
2018-04-18T14:00:55.931Z,17.47
2018-04-18T14:03:28.226Z,14.57
2018-04-18T14:06:00.347Z,15.47
2018-04-18T14:08:32.714Z,13.63
2018-04-18T14:11:04.917Z,18.10
2018-04-18T14:13:36.997Z,18.93
2018-04-18T14:16:09.040Z,17.60
2018-04-18T14:18:41.199Z,17.33
2018-04-18T14:21:13.274Z,17.93
2018-04-18T14:23:45.301Z,17.90
2018-04-18T14:26:17.432Z,16.97
2018-04-18T14:28:49.789Z,17.57
2018-04-18T14:31:21.955Z,16.93
2018-04-18T14:33:54.125Z,14.63
2018-04-18T14:36:26.221Z,14.77
2018-04-18T14:38:59.345Z,16.50
2018-04-18T14:41:32.266Z,16.90
2018-04-18T14:44:04.705Z,16.87
2018-04-18T14:46:36.964Z,13.93
2018-04-18T14:49:09.718Z,13.20
2018-04-18T14:51:42.553Z,14.27
2018-04-18T14:54:14.751Z,18.67
2018-04-18T14:56:46.964Z,14.63
2018-04-18T14:59:19.072Z,14.43
2018-04-18T15:01:51.247Z,15.97
2018-04-18T15:04:23.438Z,14.47
2018-04-18T15:06:56.561Z,15.30
2018-04-18T15:09:28.943Z,21.10
2018-04-18T15:12:01.246Z,15.90
2018-04-18T15:14:34.001Z,14.23
2018-04-18T15:17:06.279Z,16.47
2018-04-18T15:19:38.358Z,16.90
2018-04-18T15:22:10.698Z,15.50
2018-04-18T15:24:42.801Z,16.60
2018-04-18T15:27:15.010Z,18.10
2018-04-18T15:29:47.140Z,15.63
2018-04-18T15:32:19.838Z,18.77
2018-04-18T15:34:52.062Z,19.47
2018-04-18T15:37:25.138Z,15.03
2018-04-18T15:39:57.243Z,13.00
2018-04-18T15:42:29.430Z,15.57
2018-04-18T15:45:01.502Z,18.80
2018-04-18T15:47:34.245Z,13.07
2018-04-18T15:50:06.361Z,17.07
2018-04-18T15:52:39.429Z,17.43
2018-04-18T15:55:11.790Z,17.53
2018-04-18T15:57:44.055Z,13.83
2018-04-18T16:00:16.254Z,13.83
2018-04-18T16:02:49.293Z,16.27
2018-04-18T16:05:21.340Z,18.07
2018-04-18T16:07:54.499Z,19.00
2018-04-18T16:10:27.454Z,15.80
2018-04-18T16:13:00.765Z,17.13
2018-04-18T16:15:34.549Z,17.17
2018-04-18T16:18:06.842Z,15.53
2018-04-18T16:20:39.554Z,14.27
2018-04-18T16:23:12.611Z,18.77
2018-04-18T16:25:44.733Z,16.17
2018-04-18T16:28:16.852Z,19.70
2018-04-18T16:30:49.846Z,16.97
2018-04-18T16:33:22.962Z,15.33
2018-04-18T16:35:55.357Z,18.03
2018-04-18T16:38:27.542Z,16.53
2018-04-18T16:40:59.928Z,17.00
2018-04-18T16:43:32.337Z,18.30
2018-04-18T16:46:05.614Z,20.83
2018-04-18T16:48:37.748Z,14.67
2018-04-18T16:51:10.120Z,17.60
2018-04-18T16:53:42.267Z,18.47
2018-04-18T16:56:14.649Z,18.43
2018-04-18T16:58:46.818Z,15.67
2018-04-18T17:01:19.014Z,15.77
2018-04-18T17:03:51.096Z,19.13
2018-04-18T17:06:23.976Z,18.53
2018-04-18T17:08:56.272Z,18.87
2018-04-18T17:11:28.488Z,20.73
2018-04-18T17:14:00.790Z,17.50
2018-04-18T17:16:32.827Z,16.70
2018-04-18T17:19:04.956Z,17.50
2018-04-18T17:21:37.401Z,17.10
2018-04-18T17:24:09.644Z,17.83
2018-04-18T17:26:41.962Z,18.67
2018-04-18T17:29:14.208Z,16.27
2018-04-18T17:31:47.291Z,18.90
2018-04-18T17:34:20.251Z,18.33
2018-04-18T17:36:52.580Z,18.27
2018-04-18T17:39:24.943Z,21.23
2018-04-18T17:41:57.165Z,17.70
2018-04-18T17:44:29.462Z,20.40
2018-04-18T17:47:01.731Z,17.02
2018-04-18T17:49:34.795Z,16.40
2018-04-18T17:52:08.075Z,15.33
2018-04-18T17:54:40.526Z,14.63
2018-04-18T17:57:12.784Z,17.70
2018-04-18T17:59:45.033Z,16.27
2018-04-18T18:02:17.996Z,19.33
2018-04-18T18:04:50.164Z,16.60
2018-04-18T18:07:22.465Z,20.13
2018-04-18T18:09:55.333Z,15.67
2018-04-18T18:12:27.463Z,21.47
2018-04-18T18:14:59.749Z,15.93
2018-04-18T18:17:32.532Z,18.10
2018-04-18T18:20:04.889Z,18.83
2018-04-18T18:22:37.177Z,21.47
2018-04-18T18:25:09.348Z,19.33
2018-04-18T18:27:41.769Z,20.97
2018-04-18T18:30:14.600Z,21.30
2018-04-18T18:32:46.944Z,19.43
2018-04-18T18:35:19.010Z,17.10
2018-04-18T18:37:51.070Z,18.37
2018-04-18T18:40:23.469Z,18.50
2018-04-18T18:42:55.613Z,20.07
2018-04-18T18:45:28.238Z,23.00
2018-04-18T18:48:00.381Z,17.50
2018-04-18T18:50:32.697Z,24.40
2018-04-18T18:53:05.930Z,19.00
2018-04-18T18:55:38.483Z,19.33
2018-04-18T18:58:10.665Z,17.57
2018-04-18T19:00:43.100Z,16.33
2018-04-18T19:03:15.646Z,19.67
2018-04-18T19:05:47.871Z,18.97
2018-04-18T19:08:20.171Z,20.90
2018-04-18T19:10:52.358Z,17.70
2018-04-18T19:13:24.557Z,19.70
2018-04-18T19:15:57.496Z,16.57
2018-04-18T19:18:29.609Z,19.17
2018-04-18T19:21:02.614Z,19.33
2018-04-18T19:23:34.981Z,22.47
2018-04-18T19:26:07.898Z,19.17
2018-04-18T19:28:40.389Z,20.50
2018-04-18T19:31:12.516Z,16.53
2018-04-18T19:33:44.582Z,19.73
2018-04-18T19:36:16.816Z,21.93
2018-04-18T19:38:49.170Z,18.27
2018-04-18T19:41:21.254Z,20.40
2018-04-18T19:43:53.614Z,19.10
2018-04-18T19:46:25.791Z,20.63
2018-04-18T19:48:57.909Z,25.63
2018-04-18T19:51:30.201Z,22.63
2018-04-18T19:54:02.623Z,19.67
2018-04-18T19:56:35.610Z,18.13
2018-04-18T19:59:07.743Z,18.87
2018-04-18T20:01:39.833Z,18.87
2018-04-18T20:04:13.608Z,21.13
2018-04-18T20:06:45.777Z,21.23
2018-04-18T20:09:18.841Z,22.20
2018-04-18T20:11:51.063Z,19.83
2018-04-18T20:14:24.158Z,21.37
2018-04-18T20:16:57.116Z,22.73
2018-04-18T20:19:29.350Z,26.13
2018-04-18T20:22:01.778Z,21.77
2018-04-18T20:24:34.096Z,24.30
2018-04-18T20:27:06.394Z,20.30
2018-04-18T20:29:38.569Z,21.93
2018-04-18T20:32:10.808Z,20.57
2018-04-18T20:34:43.033Z,20.97
2018-04-18T20:37:16.097Z,23.87
2018-04-18T20:39:48.353Z,21.33
2018-04-18T20:42:20.665Z,19.10
2018-04-18T20:44:53.720Z,22.13
2018-04-18T20:47:25.873Z,25.00
2018-04-18T20:49:57.930Z,22.40
2018-04-18T20:52:30.268Z,23.33
2018-04-18T20:55:03.128Z,23.10
2018-04-18T20:57:35.403Z,22.20
2018-04-18T21:00:07.551Z,23.00
2018-04-18T21:02:39.654Z,21.87
2018-04-18T21:05:12.055Z,20.63
2018-04-18T21:07:44.274Z,21.90
2018-04-18T21:10:16.414Z,22.10
2018-04-18T21:12:48.634Z,21.10
2018-04-18T21:15:21.553Z,23.43
2018-04-18T21:17:53.908Z,23.80
2018-04-18T21:20:26.357Z,26.77
2018-04-18T21:22:59.261Z,27.57
2018-04-18T21:25:31.569Z,22.43
2018-04-18T21:28:04.071Z,24.43
2018-04-18T21:30:36.327Z,23.47
2018-04-18T21:33:08.442Z,23.67
2018-04-18T21:35:40.571Z,22.43
2018-04-18T21:38:12.947Z,25.87
2018-04-18T21:40:45.025Z,25.97
2018-04-18T21:43:17.154Z,23.60
2018-04-18T21:45:49.486Z,26.10
2018-04-18T21:48:21.667Z,22.47
2018-04-18T21:50:54.035Z,29.13
2018-04-18T21:53:26.411Z,28.03
2018-04-18T21:55:58.750Z,25.53
2018-04-18T21:58:30.865Z,27.43
2018-04-18T22:01:03.081Z,25.17
2018-04-18T22:03:35.264Z,24.37
2018-04-18T22:06:07.484Z,24.63
2018-04-18T22:08:39.887Z,28.27
2018-04-18T22:11:12.802Z,23.33
2018-04-18T22:13:44.912Z,24.03
2018-04-18T22:16:17.077Z,28.83
2018-04-18T22:18:49.397Z,31.23
2018-04-18T22:21:22.369Z,25.90
2018-04-18T22:23:54.786Z,27.17
2018-04-18T22:26:26.865Z,28.23
2018-04-18T22:28:58.994Z,26.83
2018-04-18T22:31:31.320Z,27.97
2018-04-18T22:34:03.644Z,24.70
2018-04-18T22:36:36.326Z,24.00
2018-04-18T22:39:08.775Z,26.20
2018-04-18T22:41:41.890Z,25.87
2018-04-18T22:44:14.584Z,25.13
2018-04-18T22:46:46.907Z,27.17
2018-04-18T22:49:19.927Z,27.83
2018-04-18T22:51:52.178Z,28.97
2018-04-18T22:54:25.034Z,23.33
2018-04-18T22:56:57.181Z,25.67
2018-04-18T22:59:29.692Z,27.00
2018-04-18T23:02:01.944Z,27.33
2018-04-18T23:04:34.263Z,26.50
2018-04-18T23:07:06.620Z,26.20
2018-04-18T23:09:39.618Z,25.90
2018-04-18T23:12:11.849Z,28.20
2018-04-18T23:14:43.908Z,30.90
2018-04-18T23:17:16.232Z,29.73
2018-04-18T23:19:48.461Z,27.10
2018-04-18T23:22:33.243Z,27.23
2018-04-18T23:25:06.070Z,29.13
2018-04-18T23:27:38.164Z,28.23
2018-04-18T23:30:10.562Z,29.87
2018-04-18T23:32:43.514Z,29.43
2018-04-18T23:35:15.602Z,28.13
2018-04-18T23:37:48.098Z,29.33
2018-04-18T23:40:21.071Z,29.97
2018-04-18T23:42:53.927Z,28.57
2018-04-18T23:45:26.101Z,28.47
2018-04-18T23:47:58.132Z,25.03
2018-04-18T23:50:30.526Z,26.20
2018-04-18T23:53:02.648Z,28.20
2018-04-18T23:55:35.001Z,28.10
2018-04-18T23:58:07.280Z,31.37
